Time;durP1;ratioP1;P1;durP2;ratioP2;P2;SDS_P1;SDS_P2;PMS_P1;PMS_P2;Temp;Humidity;BMP_temperature;BMP_pressure;BME280_temperature;BME280_humidity;BME280_pressure;Samples;Min_cycle;Max_cycle;Signal;HPM_P1;HPM_P2
2024/03/07 02:47:46;;;;;;;59.00;29.50;;;;;;;2.50;100.00;99477.43;265099;1296;549078;-90
2024/03/07 02:53:57;;;;;;;;;;;;;;;2.46;100.00;99479.81;268662;1279;22654;-93
2024/03/07 03:00:19;;;;;;;60.40;29.30;;;;;;;2.35;100.00;99481.52;271166;1273;22543;-92
2024/03/07 03:06:26;;;;;;;73.40;32.30;;;;;;;2.25;100.00;99483.13;271589;1267;22563;-91
2024/03/07 03:12:31;;;;;;;61.70;29.40;;;;;;;2.16;100.00;99484.73;271572;1257;22575;-91
2024/03/07 03:18:35;;;;;;;68.10;29.70;;;;;;;2.07;100.00;99479.95;271450;1265;23080;-91
2024/03/07 03:24:41;;;;;;;68.20;32.10;;;;;;;1.98;100.00;99486.54;270706;1267;23354;-91
2024/03/07 03:31:09;;;;;;;75.70;33.90;;;;;;;1.93;100.00;99487.27;273303;1266;23612;-91
2024/03/07 03:37:14;;;;;;;76.60;31.10;;;;;;;1.88;100.00;99487.02;273222;1266;22187;-91
2024/03/07 03:43:20;;;;;;;71.00;31.40;;;;;;;1.81;100.00;99488.90;273115;1267;22312;-91
2024/03/07 03:49:34;;;;;;;77.50;31.70;;;;;;;1.76;100.00;99491.65;273185;1267;22230;-92
2024/03/07 03:55:38;;;;;;;81.60;33.00;;;;;;;1.73;100.00;99495.11;273359;1267;22312;-92
2024/03/07 04:01:42;;;;;;;76.30;32.10;;;;;;;1.73;100.00;99496.86;270877;1267;26765;-92
2024/03/07 04:07:46;;;;;;;78.80;33.00;;;;;;;1.70;100.00;99497.19;270951;1267;23232;-92
2024/03/07 04:13:57;;;;;;;71.80;32.00;;;;;;;1.68;100.00;99499.94;271402;1267;22222;-92
2024/03/07 04:20:00;;;;;;;86.00;34.10;;;;;;;1.68;100.00;99503.77;270563;1267;22568;-92
2024/03/07 04:26:08;;;;;;;83.60;34.70;;;;;;;1.65;100.00;99504.58;270776;1267;22691;-94
2024/03/07 04:32:41;;;;;;;79.70;34.40;;;;;;;1.61;100.00;99506.41;271528;1267;22369;-93
2024/03/07 04:38:45;;;;;;;80.50;35.00;;;;;;;1.55;100.00;99511.83;271465;1267;22505;-94
2024/03/07 04:44:52;;;;;;;87.30;35.50;;;;;;;1.52;100.00;99517.66;271590;1267;23350;-93
2024/03/07 04:50:59;;;;;;;83.10;34.60;;;;;;;1.51;100.00;99518.77;270845;1267;22503;-92
2024/03/07 04:57:05;;;;;;;70.10;32.90;;;;;;;1.45;100.00;99518.84;270897;1267;23091;-93
2024/03/07 05:03:11;;;;;;;82.70;34.10;;;;;;;1.41;100.00;99526.64;271313;1267;22484;-92
2024/03/07 05:09:22;;;;;;;82.00;33.90;;;;;;;1.37;100.00;99529.54;271219;1267;22277;-92
2024/03/07 05:15:30;;;;;;;75.30;33.70;;;;;;;1.30;100.00;99533.98;271023;1267;22617;-92
2024/03/07 05:21:37;;;;;;;78.90;34.70;;;;;;;1.27;100.00;99540.09;270451;1267;25516;-92
2024/03/07 05:27:43;;;;;;;84.40;36.20;;;;;;;1.26;100.00;99546.16;273315;1267;23612;-92
2024/03/07 05:34:03;;;;;;;79.50;34.70;;;;;;;1.25;100.00;99551.30;273266;1267;22958;-91
2024/03/07 05:40:11;;;;;;;81.20;36.90;;;;;;;1.25;100.00;99555.94;273319;1267;22378;-92
2024/03/07 05:46:23;;;;;;;86.70;36.20;;;;;;;1.22;100.00;99559.15;273313;1267;22396;-93
2024/03/07 05:52:27;;;;;;;74.70;34.50;;;;;;;1.17;100.00;99561.56;273279;1267;22447;-93
2024/03/07 05:58:39;;;;;;;83.00;34.20;;;;;;;1.13;100.00;99561.58;273331;1267;23533;-93
2024/03/07 06:04:43;;;;;;;77.40;35.80;;;;;;;1.09;100.00;99559.95;273245;1267;22900;-92
2024/03/07 06:11:06;;;;;;;81.40;36.00;;;;;;;1.05;100.00;99561.27;271600;1267;22582;-92
2024/03/07 06:17:10;;;;;;;77.60;34.40;;;;;;;1.05;100.00;99562.19;270748;1267;23726;-93
2024/03/07 06:23:16;;;;;;;85.80;36.20;;;;;;;1.05;100.00;99566.23;270582;1267;23375;-92
2024/03/07 06:29:19;;;;;;;91.10;38.20;;;;;;;1.06;100.00;99568.31;270508;1267;22477;-91
2024/03/07 06:35:23;;;;;;;88.40;38.70;;;;;;;1.05;100.00;99575.39;271319;1267;22506;-92
2024/03/07 06:41:27;;;;;;;87.60;38.80;;;;;;;1.02;100.00;99576.63;270698;1267;22556;-92
2024/03/07 06:47:32;;;;;;;97.80;40.90;;;;;;;0.99;100.00;99580.77;270453;1269;22541;-92
2024/03/07 06:53:35;;;;;;;90.10;37.90;;;;;;;0.98;100.00;99585.39;270174;1269;22558;-92
2024/03/07 06:59:45;;;;;;;80.60;33.60;;;;;;;0.98;100.00;99590.82;270014;1269;22594;-91
2024/03/07 07:05:51;;;;;;;86.50;36.60;;;;;;;0.99;100.00;99596.89;270047;1269;22553;-93
2024/03/07 07:12:04;;;;;;;95.00;38.10;;;;;;;1.01;100.00;99599.67;272689;1269;22626;-93
2024/03/07 07:18:08;;;;;;;86.10;37.20;;;;;;;1.02;100.00;99605.90;270275;1269;23219;-93
2024/03/07 07:24:14;;;;;;;91.50;36.90;;;;;;;1.00;100.00;99604.01;270156;1269;22640;-93
2024/03/07 07:30:22;;;;;;;90.50;36.90;;;;;;;0.98;100.00;99606.52;270112;1269;23885;-93
2024/03/07 07:36:26;;;;;;;82.90;36.10;;;;;;;0.99;100.00;99608.17;270117;1269;25281;-93
2024/03/07 07:42:30;;;;;;;89.40;35.10;;;;;;;1.00;100.00;99607.40;270366;1266;22599;-92
2024/03/07 07:48:33;;;;;;;81.90;35.10;;;;;;;1.02;100.00;99607.27;270633;1267;22556;-92
2024/03/07 07:54:36;;;;;;;78.50;33.60;;;;;;;1.03;100.00;99609.66;271748;1267;25338;-92
2024/03/07 08:00:54;;;;;;;78.40;34.50;;;;;;;1.04;100.00;99604.69;270661;1267;22539;-92
2024/03/07 08:06:59;;;;;;;77.40;33.20;;;;;;;1.07;100.00;99606.73;270380;1267;23284;-92
2024/03/07 08:13:03;;;;;;;78.20;34.80;;;;;;;1.08;100.00;99612.05;270619;1269;22950;-93
2024/03/07 08:19:08;;;;;;;83.00;35.60;;;;;;;1.13;100.00;99614.77;270620;1267;23655;-93
2024/03/07 08:25:14;;;;;;;84.30;36.50;;;;;;;1.13;100.00;99611.25;270502;1267;23000;-92
2024/03/07 08:31:18;;;;;;;77.30;33.00;;;;;;;1.11;100.00;99620.52;270717;1267;22539;-92
2024/03/07 08:37:26;;;;;;;68.70;31.70;;;;;;;1.08;100.00;99625.42;271260;1257;22597;-93
2024/03/07 08:43:33;;;;;;;79.10;33.40;;;;;;;1.07;100.00;99625.06;271381;1267;26311;-92
2024/03/07 08:49:37;;;;;;;72.30;34.20;;;;;;;1.05;100.00;99627.14;271017;1256;22515;-93
2024/03/07 08:55:43;;;;;;;78.80;33.60;;;;;;;1.04;100.00;99626.85;270400;1269;23220;-92
2024/03/07 09:01:48;;;;;;;69.70;32.70;;;;;;;1.00;100.00;99627.89;271760;1267;22549;-91
2024/03/07 09:07:54;;;;;;;77.50;32.30;;;;;;;0.98;100.00;99627.64;271638;1267;22796;-92
2024/03/07 09:14:00;;;;;;;72.90;32.70;;;;;;;0.99;100.00;99636.30;270923;1267;22512;-92
2024/03/07 09:20:05;;;;;;;74.90;32.10;;;;;;;1.00;100.00;99636.73;270997;1267;22530;-92
2024/03/07 09:26:09;;;;;;;69.60;31.20;;;;;;;1.02;100.00;99641.92;271582;1267;22494;-93
2024/03/07 09:32:14;;;;;;;65.30;30.20;;;;;;;1.03;100.00;99638.52;271464;1267;22393;-93
2024/03/07 09:38:18;;;;;;;62.60;30.00;;;;;;;1.07;100.00;99643.71;272209;1267;23258;-91
2024/03/07 09:44:32;;;;;;;61.70;30.80;;;;;;;1.14;100.00;99648.40;271907;1267;22504;-93
2024/03/07 09:50:39;;;;;;;65.10;30.20;;;;;;;1.16;100.00;99647.45;271965;1267;22345;-92
2024/03/07 09:56:42;;;;;;;61.60;31.00;;;;;;;1.18;100.00;99648.15;271845;1267;23263;-92
2024/03/07 10:02:56;;;;;;;65.00;31.40;;;;;;;1.19;100.00;99655.36;271742;1267;22556;-91
2024/03/07 10:09:04;;;;;;;61.30;30.90;;;;;;;1.19;100.00;99655.48;271942;1267;22598;-92
2024/03/07 10:15:13;;;;;;;70.30;32.80;;;;;;;1.22;100.00;99663.36;271674;1267;23339;-93
2024/03/07 10:21:23;;;;;;;68.90;30.50;;;;;;;1.22;100.00;99667.66;271648;1267;23253;-92
2024/03/07 10:27:29;;;;;;;61.60;30.40;;;;;;;1.20;100.00;99662.64;271584;1268;22486;-92
2024/03/07 10:33:33;;;;;;;53.30;23.70;;;;;;;1.19;100.00;99660.73;271316;1267;22525;-92
2024/03/07 10:39:44;;;;;;;66.20;30.40;;;;;;;1.21;100.00;99662.98;271190;1267;22454;-91
2024/03/07 10:45:51;;;;;;;60.40;29.50;;;;;;;1.24;100.00;99664.88;271522;1263;22565;-92
2024/03/07 10:52:20;;;;;;;64.50;30.70;;;;;;;1.30;100.00;99663.92;271674;1267;22558;-91
2024/03/07 10:58:53;;;;;;;55.50;28.60;;;;;;;1.35;100.00;99660.84;271782;1267;23561;-92
2024/03/07 11:04:56;;;;;;;62.50;28.60;;;;;;;1.35;100.00;99663.44;272126;1267;22565;-92
2024/03/07 11:11:03;;;;;;;59.20;29.80;;;;;;;1.32;100.00;99669.36;271915;1267;23237;-91
2024/03/07 11:17:08;;;;;;;;;;;;;;;1.30;100.00;99670.97;271432;1267;22903;-92
2024/03/07 11:23:30;;;;;;;58.70;28.40;;;;;;;1.31;100.00;99671.77;271730;1267;23026;-92
2024/03/07 11:29:58;;;;;;;55.90;29.30;;;;;;;1.30;100.00;99676.79;271966;1266;22542;-91
2024/03/07 11:36:15;;;;;;;60.80;29.40;;;;;;;1.32;100.00;99679.02;272312;1259;22577;-92
2024/03/07 11:42:26;;;;;;;60.00;29.80;;;;;;;1.34;100.00;99682.92;272228;1266;22515;-93
2024/03/07 11:48:31;;;;;;;54.30;28.60;;;;;;;1.34;100.00;99680.51;271877;1266;23113;-92
2024/03/07 11:54:33;;;;;;;52.50;27.70;;;;;;;1.35;100.00;99674.48;272001;1263;22489;-91
2024/03/07 12:00:47;;;;;;;55.50;28.20;;;;;;;1.39;100.00;99676.84;271742;1266;23613;-91
2024/03/07 12:07:10;;;;;;;60.60;28.10;;;;;;;1.40;100.00;99680.29;272081;1266;23018;-93
2024/03/07 12:13:15;;;;;;;52.50;26.70;;;;;;;1.39;100.00;99674.15;271795;1266;23196;-92
2024/03/07 12:19:20;;;;;;;56.30;28.10;;;;;;;1.40;100.00;99671.05;271805;1266;23390;-92
2024/03/07 12:25:25;;;;;;;56.10;28.10;;;;;;;1.41;100.00;99669.20;271912;1266;22478;-92
2024/03/07 12:31:43;;;;;;;53.20;28.30;;;;;;;1.42;100.00;99669.27;271839;1266;23458;-91
2024/03/07 12:37:49;;;;;;;62.60;28.80;;;;;;;1.47;100.00;99673.46;271448;1266;22342;-93
2024/03/07 12:44:14;;;;;;;59.50;30.00;;;;;;;1.52;100.00;99672.16;271576;1266;24007;-92
2024/03/07 12:50:29;;;;;;;57.20;27.80;;;;;;;1.58;100.00;99681.07;271693;1266;22940;-91
2024/03/07 12:56:34;;;;;;;57.30;29.20;;;;;;;1.60;100.00;99685.79;272049;1266;23310;-92
2024/03/07 13:02:43;;;;;;;52.40;21.80;;;;;;;1.58;100.00;99678.97;272095;1266;23610;-93
2024/03/07 13:08:46;;;;;;;58.60;28.40;;;;;;;1.59;100.00;99678.56;271299;1266;22545;-90
2024/03/07 13:14:55;;;;;;;57.10;27.70;;;;;;;1.64;100.00;99678.85;271457;1266;22224;-92
2024/03/07 13:20:59;;;;;;;52.50;28.30;;;;;;;1.71;100.00;99675.48;272871;1266;23642;-91
2024/03/07 13:27:11;;;;;;;52.20;25.40;;;;;;;1.82;100.00;99675.46;271962;1266;22399;-91
2024/03/07 13:33:15;;;;;;;46.90;26.10;;;;;;;1.91;100.00;99677.75;271956;1267;22536;-92
2024/03/07 13:51:14;;;;;;;50.10;25.40;;;;;;;2.32;100.00;99671.52;264095;1305;545793;-90
2024/03/07 13:57:37;;;;;;;44.70;25.20;;;;;;;2.39;100.00;99674.88;270619;1281;23904;-89
2024/03/07 14:04:18;;;;;;;48.90;25.50;;;;;;;2.39;100.00;99672.86;270271;1275;471755;-89
2024/03/07 14:10:53;;;;;;;48.30;24.90;;;;;;;2.39;100.00;99668.10;271023;1279;22383;-90
2024/03/07 14:18:21;;;;;;;48.90;25.10;;;;;;;2.48;100.00;99669.21;271140;1278;22878;-89
2024/03/07 14:25:16;;;;;;;49.20;25.60;;;;;;;2.52;100.00;99665.55;271474;1273;22507;-88
2024/03/07 14:32:22;;;;;;;45.80;24.70;;;;;;;2.53;100.00;99658.88;272534;1269;22225;-90
2024/03/07 14:39:23;;;;;;;42.80;23.90;;;;;;;2.51;100.00;99656.16;272910;1268;22425;-89
2024/03/07 14:45:55;;;;;;;44.30;23.80;;;;;;;2.52;100.00;99650.84;273674;1269;22092;-90
2024/03/07 14:52:52;;;;;;;48.90;25.00;;;;;;;2.55;100.00;99650.34;274049;1267;23008;-89
2024/03/07 15:06:45;;;;;;;47.60;25.30;;;;;;;2.60;100.00;99642.27;272965;1274;22384;-90
2024/03/07 15:12:54;;;;;;;45.00;24.50;;;;;;;2.60;100.00;99642.21;273946;1269;22246;-90
2024/03/07 15:19:50;;;;;;;40.60;22.60;;;;;;;2.59;100.00;99640.02;273949;1273;22186;-89
2024/03/07 15:26:39;;;;;;;49.30;26.20;;;;;;;2.59;100.00;99637.59;272013;1266;24070;-89
2024/03/07 15:33:55;;;;;;;;;;;;;;;;;;;;;
2024/03/07 15:40:45;;;;;;;39.30;19.80;;;;;;;2.61;100.00;99638.95;271717;1267;22518;-91
2024/03/07 15:54:41;;;;;;;42.20;21.50;;;;;;;2.64;100.00;99640.34;273247;1256;22400;-90
2024/03/07 16:01:29;;;;;;;42.70;21.40;;;;;;;2.66;100.00;99646.08;273376;1269;22672;-90
2024/03/07 16:07:59;;;;;;;36.30;19.10;;;;;;;2.66;100.00;99648.11;272414;1268;22176;-89
2024/03/07 16:14:42;;;;;;;44.10;20.40;;;;;;;2.67;100.00;99651.98;273255;1269;23233;-89
2024/03/07 16:21:34;;;;;;;46.90;21.90;;;;;;;2.67;100.00;99654.38;271925;1271;22366;-90
2024/03/07 16:28:43;;;;;;;40.20;19.70;;;;;;;2.65;100.00;99659.98;272491;1272;22485;-89
2024/03/07 16:35:31;;;;;;;38.30;20.90;;;;;;;2.66;100.00;99664.90;273113;1279;22205;-91
2024/03/07 16:42:29;;;;;;;34.80;18.40;;;;;;;2.64;100.00;99666.06;272363;1281;22918;-89
2024/03/07 16:50:13;;;;;;;34.20;19.00;;;;;;;2.63;100.00;99665.39;271777;1284;22247;-91
2024/03/07 16:57:55;;;;;;;32.80;18.40;;;;;;;2.61;100.00;99667.21;272079;1281;22253;-90
2024/03/07 17:05:46;;;;;;;33.80;18.40;;;;;;;2.59;100.00;99670.98;270840;1284;22253;-91
2024/03/07 17:13:51;;;;;;;;;;;;;;;;;;;;;
2024/03/07 17:21:06;;;;;;;31.60;17.30;;;;;;;2.58;100.00;99683.96;271098;1281;25041;-90
2024/03/07 17:28:11;;;;;;;;;;;;;;;2.56;100.00;99694.05;271763;1275;22465;-90
2024/03/07 17:35:30;;;;;;;;;;;;;;;;;;;;;
2024/03/07 17:42:47;;;;;;;36.40;19.80;;;;;;;2.53;100.00;99698.69;273637;1267;22258;-90
2024/03/07 17:50:19;;;;;;;35.10;19.30;;;;;;;2.53;100.00;99704.39;273893;1272;22194;-90
2024/03/07 17:56:36;;;;;;;;;;;;;;;;;;;;;
2024/03/07 18:03:22;;;;;;;32.40;18.40;;;;;;;2.54;100.00;99711.06;273372;1269;22169;-90
2024/03/07 18:09:59;;;;;;;41.80;22.00;;;;;;;2.52;100.00;99710.52;273930;1275;23352;-91
2024/03/07 18:16:08;;;;;;;48.20;24.30;;;;;;;2.48;100.00;99717.94;273812;1270;22262;-89
2024/03/07 18:22:58;;;;;;;43.70;23.70;;;;;;;2.45;100.00;99720.64;273961;1272;22204;-91
2024/03/07 18:29:33;;;;;;;46.80;23.40;;;;;;;2.39;100.00;99719.61;273614;1269;22183;-90
2024/03/07 18:35:51;;;;;;;49.40;23.90;;;;;;;2.32;100.00;99723.17;273285;1269;23193;-91
2024/03/07 18:42:19;;;;;;;45.50;23.40;;;;;;;2.25;100.00;99722.20;273686;1269;22237;-90
2024/03/07 18:55:56;;;;;;;47.70;24.90;;;;;;;2.14;100.00;99729.08;274087;1269;22204;-92
2024/03/07 19:03:01;;;;;;;45.40;23.10;;;;;;;2.08;100.00;99726.28;273683;1270;23011;-91
2024/03/07 19:11:09;;;;;;;;;;;;;;;;;;;;;
2024/03/07 19:19:01;;;;;;;;;;;;;;;;;;;;;
2024/03/07 19:25:51;;;;;;;49.50;26.70;;;;;;;1.90;100.00;99726.59;270451;1288;22235;-90
2024/03/07 19:32:58;;;;;;;54.40;29.30;;;;;;;1.86;100.00;99732.61;270305;1285;22265;-89
2024/03/07 19:40:06;;;;;;;;;;;;;;;;;;;;;
2024/03/07 19:47:13;;;;;;;52.80;25.60;;;;;;;1.73;100.00;99733.02;272541;1270;22393;-90
2024/03/07 19:55:29;;;;;;;;;;;;;;;;;;;;;
2024/03/07 20:02:30;;;;;;;43.40;23.80;;;;;;;1.59;100.00;99732.05;273281;1275;22685;-91
2024/03/07 20:09:47;;;;;;;50.90;25.10;;;;;;;1.55;100.00;99731.81;274044;1275;22178;-90
2024/03/07 20:32:47;;;;;;;43.00;23.90;;;;;;;1.38;100.00;99716.45;272643;1283;22435;-89
2024/03/07 20:40:07;;;;;;;33.50;17.10;;;;;;;1.34;100.00;99712.02;271182;1286;22389;-90
2024/03/07 20:47:59;;;;;;;;;;;;;;;;;;;;;
2024/03/07 20:55:15;;;;;;;;;;;;;;;;;;;;;
2024/03/07 21:02:33;;;;;;;45.70;24.20;;;;;;;1.29;100.00;99717.22;271114;1265;22407;-89
2024/03/07 21:09:38;;;;;;;50.90;24.20;;;;;;;1.25;100.00;99717.07;272744;1269;23256;-89
2024/03/07 21:17:47;;;;;;;49.90;24.70;;;;;;;1.22;100.00;99714.04;273847;1272;22185;-88
2024/03/07 21:23:51;;;;;;;47.40;24.10;;;;;;;1.20;100.00;99709.89;273901;1269;22153;-89
2024/03/07 21:38:10;;;;;;;46.70;23.90;;;;;;;1.15;100.00;99708.46;273796;1268;22399;-90
2024/03/07 21:46:08;;;;;;;;;;;;;;;;;;;;;
2024/03/07 21:52:55;;;;;;;43.60;22.80;;;;;;;1.11;100.00;99699.95;273425;1274;22226;-90
2024/03/07 21:59:55;;;;;;;;;;;;;;;;;;;;;
2024/03/07 22:07:59;;;;;;;46.20;22.60;;;;;;;1.08;100.00;99698.77;273599;1269;22186;-89
2024/03/07 22:22:39;;;;;;;39.80;21.30;;;;;;;1.05;100.00;99689.80;272970;1280;23220;-89
2024/03/07 22:29:33;;;;;;;43.70;22.20;;;;;;;1.04;100.00;99690.11;273136;1267;23952;-90
2024/03/07 22:36:43;;;;;;;;;;;;;;;;;;;;;
2024/03/07 22:43:05;;;;;;;42.40;22.60;;;;;;;0.99;100.00;99679.14;273116;1278;23270;-89
2024/03/07 22:50:30;;;;;;;45.40;22.70;;;;;;;0.97;100.00;99677.94;271897;1286;22405;-90
2024/03/07 22:57:52;;;;;;;;;;;;;;;;;;;;;
2024/03/07 23:05:08;;;;;;;47.80;23.00;;;;;;;0.99;100.00;99674.82;271353;1291;22234;-89
2024/03/07 23:13:18;;;;;;;;;;;;;;;;;;;;;
2024/03/07 23:20:49;;;;;;;49.10;25.40;;;;;;;0.99;100.00;99672.11;272312;1272;22254;-88
2024/03/07 23:27:51;;;;;;;49.50;25.30;;;;;;;0.98;100.00;99671.59;272401;1273;22231;-89
2024/03/07 23:35:16;;;;;;;52.60;26.90;;;;;;;0.96;100.00;99667.41;273113;1278;22235;-89
2024/03/07 23:42:10;;;;;;;52.70;25.80;;;;;;;0.94;100.00;99666.81;272770;1272;23029;-88
2024/03/07 23:48:57;;;;;;;48.10;24.80;;;;;;;0.90;100.00;99671.90;272750;1280;22332;-89
2024/03/07 23:55:41;;;;;;;54.20;26.00;;;;;;;0.88;100.00;99666.86;273210;1273;22236;-91
